Time;durP1;ratioP1;P1;durP2;ratioP2;P2;SDS_P1;SDS_P2;PMS_P1;PMS_P2;Temp;Humidity;BMP_temperature;BMP_pressure;BME280_temperature;BME280_humidity;BME280_pressure;Samples;Min_cycle;Max_cycle;Signal;HPM_P1;HPM_P2
2024/02/19 00:00:24;;;;;;;9.32;3.42;;;8.30;99.90;;;;;;4886658;29;20040;-64
2024/02/19 00:02:50;;;;;;;11.50;2.97;;;8.30;99.90;;;;;;4886352;29;20473;-65
2024/02/19 00:05:15;;;;;;;7.45;2.58;;;8.30;99.90;;;;;;4886532;29;20080;-65
2024/02/19 00:07:41;;;;;;;13.40;3.25;;;8.30;99.90;;;;;;4883255;29;20485;-65
2024/02/19 00:10:08;;;;;;;6.07;2.38;;;8.30;99.90;;;;;;4888226;29;20040;-65
2024/02/19 00:12:33;;;;;;;8.95;3.03;;;8.30;99.90;;;;;;4885873;29;20033;-64
2024/02/19 00:14:59;;;;;;;10.95;2.28;;;8.30;99.90;;;;;;4885742;29;20047;-65
2024/02/19 00:17:25;;;;;;;8.32;2.70;;;8.30;99.90;;;;;;4884853;29;20036;-65
2024/02/19 00:19:51;;;;;;;10.30;2.65;;;8.20;99.90;;;;;;4889171;29;20045;-65
2024/02/19 00:22:17;;;;;;;9.63;2.28;;;8.30;99.90;;;;;;4885047;29;20033;-65
2024/02/19 00:24:42;;;;;;;7.70;2.58;;;8.30;99.90;;;;;;4884503;29;20090;-65
2024/02/19 00:27:08;;;;;;;9.55;2.70;;;8.20;99.90;;;;;;4871526;29;20032;-65
2024/02/19 00:29:33;;;;;;;7.68;2.22;;;8.30;99.90;;;;;;4884325;29;20029;-65
2024/02/19 00:31:59;;;;;;;9.00;2.30;;;8.30;99.90;;;;;;4875978;29;20710;-65
2024/02/19 00:34:26;;;;;;;6.65;2.17;;;8.20;99.90;;;;;;4886404;29;20033;-65
2024/02/19 00:36:52;;;;;;;9.75;2.72;;;8.20;99.90;;;;;;4870399;29;20255;-65
2024/02/19 00:39:17;;;;;;;7.63;2.08;;;8.20;99.90;;;;;;4886806;29;20464;-65
2024/02/19 00:41:43;;;;;;;11.70;2.33;;;8.00;99.90;;;;;;4883966;29;20025;-65
2024/02/19 00:44:09;;;;;;;10.95;2.42;;;8.20;99.90;;;;;;4888011;29;20028;-65
2024/02/19 00:46:34;;;;;;;6.70;1.85;;;8.10;99.90;;;;;;4884197;29;20758;-65
2024/02/19 00:49:00;;;;;;;12.43;2.50;;;8.10;99.90;;;;;;4890268;29;20119;-65
2024/02/19 00:51:26;;;;;;;13.48;2.10;;;8.10;99.90;;;;;;4886018;29;20041;-65
2024/02/19 00:53:51;;;;;;;9.15;1.73;;;8.10;99.90;;;;;;4867844;29;20048;-65
2024/02/19 00:56:17;;;;;;;13.82;2.53;;;8.10;99.90;;;;;;4874528;29;20548;-65
2024/02/19 00:58:42;;;;;;;9.13;2.28;;;8.00;99.90;;;;;;4889497;29;20112;-65
2024/02/19 01:01:08;;;;;;;11.88;2.97;;;8.00;99.90;;;;;;4887590;29;20080;-65
2024/02/19 01:03:33;;;;;;;12.35;2.70;;;8.00;99.90;;;;;;4888230;29;20025;-65
2024/02/19 01:05:59;;;;;;;14.85;2.78;;;8.00;99.90;;;;;;4884703;29;20025;-65
2024/02/19 01:08:25;;;;;;;8.05;1.40;;;8.00;99.90;;;;;;4889948;29;20527;-65
2024/02/19 01:10:50;;;;;;;9.82;2.08;;;8.00;99.90;;;;;;4864452;29;20025;-65
2024/02/19 01:13:16;;;;;;;9.20;2.33;;;7.90;99.90;;;;;;4887226;29;20043;-66
2024/02/19 01:15:42;;;;;;;8.55;2.05;;;7.90;99.90;;;;;;4879520;29;20127;-66
2024/02/19 01:18:07;;;;;;;7.20;1.75;;;8.00;99.90;;;;;;4892095;29;20043;-65
2024/02/19 01:20:33;;;;;;;7.35;2.03;;;7.80;99.90;;;;;;4870744;29;20111;-65
2024/02/19 01:22:58;;;;;;;7.07;1.70;;;7.90;99.90;;;;;;4886766;29;20029;-65
2024/02/19 01:25:24;;;;;;;5.70;1.30;;;7.80;99.90;;;;;;4886616;29;20029;-65
2024/02/19 01:27:50;;;;;;;8.02;1.63;;;7.70;99.90;;;;;;4873648;29;20047;-65
2024/02/19 01:30:15;;;;;;;11.23;2.00;;;7.70;99.90;;;;;;4891608;29;20070;-65
2024/02/19 01:32:41;;;;;;;12.43;2.17;;;7.60;99.90;;;;;;4888018;29;20033;-65
2024/02/19 01:35:10;;;;;;;13.43;2.15;;;7.60;99.90;;;;;;4891055;29;20088;-65
2024/02/19 01:37:36;;;;;;;14.13;2.85;;;7.60;99.90;;;;;;4887982;29;20140;-65
2024/02/19 01:40:08;;;;;;;19.00;2.95;;;7.60;99.90;;;;;;4885805;29;20107;-65
2024/02/19 01:42:35;;;;;;;16.38;2.05;;;7.50;99.90;;;;;;4889285;29;20492;-65
2024/02/19 01:45:01;;;;;;;7.07;1.40;;;7.60;99.90;;;;;;4890190;29;20025;-65
2024/02/19 01:47:27;;;;;;;9.23;2.20;;;7.60;99.90;;;;;;4871257;29;20033;-65
2024/02/19 01:49:53;;;;;;;10.55;2.10;;;7.50;99.90;;;;;;4888140;29;20069;-65
2024/02/19 01:52:19;;;;;;;10.40;2.30;;;7.50;99.90;;;;;;4885764;29;20045;-64
2024/02/19 01:54:45;;;;;;;15.07;2.05;;;7.40;99.90;;;;;;4875922;29;20529;-64
2024/02/19 01:57:11;;;;;;;11.13;2.13;;;7.50;99.90;;;;;;4888079;29;20408;-64
2024/02/19 01:59:39;;;;;;;15.38;2.22;;;7.30;99.90;;;;;;4893624;29;20395;-64
2024/02/19 02:02:05;;;;;;;15.70;1.92;;;7.30;99.90;;;;;;4890121;29;20032;-64
2024/02/19 02:04:30;;;;;;;8.40;1.77;;;7.30;99.90;;;;;;4886591;29;20096;-64
2024/02/19 02:06:57;;;;;;;11.13;1.35;;;7.30;99.90;;;;;;4890212;29;20449;-65
2024/02/19 02:09:23;;;;;;;10.60;1.58;;;7.30;99.90;;;;;;4888179;29;20020;-65
2024/02/19 02:11:48;;;;;;;9.93;1.80;;;7.30;99.90;;;;;;4889056;29;20032;-65
2024/02/19 02:14:14;;;;;;;6.53;1.73;;;7.20;99.90;;;;;;4888789;29;20678;-64
2024/02/19 02:16:40;;;;;;;14.98;1.83;;;7.30;99.90;;;;;;4870715;29;20029;-65
2024/02/19 02:19:05;;;;;;;12.40;2.40;;;7.30;99.90;;;;;;4873680;29;20059;-65
2024/02/19 02:21:31;;;;;;;5.40;1.60;;;7.20;99.90;;;;;;4870027;29;20032;-65
2024/02/19 02:23:56;;;;;;;10.63;2.30;;;7.30;99.90;;;;;;4887521;29;20408;-64
2024/02/19 02:26:22;;;;;;;12.40;2.60;;;7.20;99.90;;;;;;4887668;29;20036;-65
2024/02/19 02:28:48;;;;;;;11.73;1.95;;;7.30;99.90;;;;;;4887729;29;20040;-66
2024/02/19 02:31:13;;;;;;;11.57;2.15;;;7.30;99.90;;;;;;4873761;29;20032;-65
2024/02/19 02:33:39;;;;;;;10.93;2.55;;;7.30;99.90;;;;;;4886941;29;20488;-64
2024/02/19 02:36:05;;;;;;;14.20;2.47;;;7.20;99.90;;;;;;4889775;29;20152;-65
2024/02/19 02:38:31;;;;;;;8.80;1.60;;;7.20;99.90;;;;;;4899444;29;20478;-64
2024/02/19 02:40:57;;;;;;;13.27;2.35;;;7.20;99.90;;;;;;4898860;29;20104;-65
2024/02/19 02:43:22;;;;;;;5.60;1.73;;;7.20;99.90;;;;;;4898792;29;20032;-64
2024/02/19 02:45:48;;;;;;;11.65;2.10;;;7.10;99.90;;;;;;4898109;29;20024;-63
2024/02/19 02:48:14;;;;;;;11.27;2.13;;;7.10;99.90;;;;;;4897444;29;20039;-64
2024/02/19 02:50:40;;;;;;;11.48;2.00;;;7.10;99.90;;;;;;4889568;29;20037;-64
2024/02/19 02:53:05;;;;;;;11.35;2.33;;;7.10;99.90;;;;;;4887333;29;20519;-64
2024/02/19 02:55:31;;;;;;;12.45;1.83;;;7.10;99.90;;;;;;4887397;29;20033;-64
2024/02/19 02:57:56;;;;;;;11.10;1.63;;;7.20;99.90;;;;;;4879071;29;20039;-65
2024/02/19 03:00:22;;;;;;;8.82;1.70;;;7.10;99.90;;;;;;4889753;29;20024;-64
2024/02/19 03:02:48;;;;;;;6.88;1.38;;;7.10;99.90;;;;;;4884082;29;20040;-63
2024/02/19 03:05:13;;;;;;;16.35;1.88;;;7.20;99.90;;;;;;4887535;29;20401;-63
2024/02/19 03:07:39;;;;;;;6.38;1.27;;;7.20;99.90;;;;;;4890317;29;20036;-65
2024/02/19 03:10:05;;;;;;;11.32;2.85;;;7.10;99.90;;;;;;4873567;29;20035;-65
2024/02/19 03:12:31;;;;;;;8.45;1.35;;;7.20;99.90;;;;;;4890180;29;20034;-64
2024/02/19 03:14:56;;;;;;;17.23;1.73;;;7.20;99.90;;;;;;4890288;29;20469;-65
2024/02/19 03:17:22;;;;;;;11.68;1.80;;;7.20;99.90;;;;;;4886840;29;20036;-64
2024/02/19 03:19:48;;;;;;;20.52;2.08;;;7.20;99.90;;;;;;4893009;29;20489;-65
2024/02/19 03:22:13;;;;;;;8.50;1.30;;;7.20;99.90;;;;;;4871907;29;20080;-65
2024/02/19 03:24:40;;;;;;;9.40;1.85;;;7.20;99.90;;;;;;4870836;29;20455;-64
2024/02/19 03:27:05;;;;;;;4.97;1.30;;;7.20;99.90;;;;;;4887691;29;20029;-64
2024/02/19 03:29:31;;;;;;;7.72;2.00;;;7.20;99.90;;;;;;4887154;29;20029;-65
2024/02/19 03:31:57;;;;;;;8.73;1.25;;;7.20;99.90;;;;;;4889652;29;20044;-65
2024/02/19 03:34:23;;;;;;;6.97;1.33;;;7.20;99.90;;;;;;4869649;29;20162;-64
2024/02/19 03:36:50;;;;;;;3.70;1.10;;;7.20;99.90;;;;;;4886530;29;20115;-65
2024/02/19 03:39:16;;;;;;;7.78;1.65;;;7.20;99.90;;;;;;4885575;29;20653;-65
2024/02/19 03:41:42;;;;;;;6.40;1.65;;;7.20;99.90;;;;;;4887964;29;20029;-65
2024/02/19 03:44:08;;;;;;;6.95;1.52;;;7.20;99.90;;;;;;4889921;29;20380;-65
2024/02/19 03:46:33;;;;;;;9.00;1.67;;;7.20;99.90;;;;;;4889414;29;20031;-65
2024/02/19 03:49:00;;;;;;;3.95;1.05;;;7.20;99.90;;;;;;4885396;29;20037;-65
2024/02/19 03:51:25;;;;;;;6.90;1.50;;;7.20;99.90;;;;;;4885807;29;20481;-65
2024/02/19 03:53:51;;;;;;;4.68;1.10;;;7.20;99.90;;;;;;4887004;29;20093;-64
2024/02/19 03:56:17;;;;;;;4.55;1.13;;;7.20;99.90;;;;;;4872363;29;20047;-65
2024/02/19 03:58:43;;;;;;;5.82;1.30;;;7.20;99.90;;;;;;4888094;29;20057;-64
2024/02/19 04:01:09;;;;;;;12.73;1.38;;;7.10;99.90;;;;;;4885840;29;20055;-64
2024/02/19 04:03:34;;;;;;;3.83;1.05;;;7.20;99.90;;;;;;4875451;29;20025;-65
2024/02/19 04:06:00;;;;;;;5.93;1.50;;;7.10;99.90;;;;;;4882195;29;20033;-64
2024/02/19 04:08:25;;;;;;;11.18;1.25;;;7.10;99.90;;;;;;4887692;29;20088;-65
2024/02/19 04:10:51;;;;;;;12.88;1.50;;;7.10;99.90;;;;;;4885375;29;20041;-64
2024/02/19 04:13:17;;;;;;;6.75;1.40;;;7.20;99.90;;;;;;4885795;29;20069;-64
2024/02/19 04:15:42;;;;;;;7.80;1.55;;;7.20;99.90;;;;;;4888330;29;20033;-64
2024/02/19 04:18:08;;;;;;;9.35;1.40;;;7.20;99.90;;;;;;4874064;29;20036;-64
2024/02/19 04:20:33;;;;;;;8.15;1.30;;;7.30;99.90;;;;;;4883740;29;20045;-64
2024/02/19 04:22:59;;;;;;;4.85;1.20;;;7.20;99.90;;;;;;4883452;29;20033;-64
2024/02/19 04:25:25;;;;;;;14.95;1.58;;;7.20;99.90;;;;;;4883314;29;20033;-64
2024/02/19 04:27:51;;;;;;;12.48;1.80;;;7.20;99.90;;;;;;4888237;29;20029;-64
2024/02/19 04:30:17;;;;;;;6.93;1.25;;;7.20;99.90;;;;;;4871815;29;20040;-64
2024/02/19 04:32:43;;;;;;;8.75;1.45;;;7.20;99.90;;;;;;4884512;29;20032;-65
2024/02/19 04:35:09;;;;;;;5.28;1.60;;;7.20;99.90;;;;;;4871500;29;20044;-64
2024/02/19 04:37:34;;;;;;;8.48;1.77;;;7.20;99.90;;;;;;4884828;29;20404;-64
2024/02/19 04:40:00;;;;;;;11.23;1.60;;;7.20;99.90;;;;;;4885768;29;20033;-64
2024/02/19 04:42:26;;;;;;;11.45;2.30;;;7.20;99.90;;;;;;4890644;29;20025;-64
2024/02/19 04:44:51;;;;;;;8.32;1.67;;;7.30;99.90;;;;;;4887075;29;20033;-64
2024/02/19 04:47:17;;;;;;;8.77;2.15;;;7.30;99.90;;;;;;4886903;29;20021;-64
2024/02/19 04:49:43;;;;;;;8.13;2.15;;;7.20;99.90;;;;;;4891520;29;20091;-62
2024/02/19 04:52:08;;;;;;;11.43;2.00;;;7.20;99.90;;;;;;4889543;29;20025;-64
2024/02/19 04:54:34;;;;;;;7.85;1.38;;;7.20;99.90;;;;;;4888014;29;20019;-64
2024/02/19 04:56:59;;;;;;;12.27;1.80;;;7.20;99.90;;;;;;4886057;29;20029;-63
2024/02/19 04:59:25;;;;;;;6.95;1.45;;;7.20;99.90;;;;;;4889909;29;20113;-62
2024/02/19 05:01:53;;;;;;;12.80;2.13;;;7.20;99.90;;;;;;4883781;29;20473;-64
2024/02/19 05:04:19;;;;;;;7.18;1.60;;;7.20;99.90;;;;;;4868130;29;20029;-64
2024/02/19 05:06:44;;;;;;;12.43;1.90;;;7.20;99.90;;;;;;4887232;29;20475;-62
2024/02/19 05:09:10;;;;;;;9.57;1.85;;;7.20;99.90;;;;;;4883920;29;20100;-63
2024/02/19 05:11:36;;;;;;;12.13;1.95;;;7.20;99.90;;;;;;4884520;29;20452;-63
2024/02/19 05:14:02;;;;;;;9.18;1.70;;;7.20;99.90;;;;;;4875053;29;20080;-63
2024/02/19 05:16:27;;;;;;;9.35;2.08;;;7.20;99.90;;;;;;4888038;29;20033;-64
2024/02/19 05:18:53;;;;;;;12.32;2.15;;;7.20;99.90;;;;;;4890523;29;20406;-62
2024/02/19 05:21:18;;;;;;;7.78;1.80;;;7.20;99.90;;;;;;4889067;29;20874;-64
2024/02/19 05:23:45;;;;;;;9.00;1.88;;;7.20;99.90;;;;;;4888905;29;20025;-63
2024/02/19 05:26:10;;;;;;;10.95;2.17;;;7.30;99.90;;;;;;4868805;29;20029;-63
2024/02/19 05:28:37;;;;;;;9.10;1.73;;;7.30;99.90;;;;;;4883944;29;20124;-64
2024/02/19 05:31:03;;;;;;;12.10;2.17;;;7.30;99.90;;;;;;4886725;29;20051;-64
2024/02/19 05:33:29;;;;;;;10.57;2.53;;;7.30;99.90;;;;;;4883741;29;20507;-64
2024/02/19 05:35:54;;;;;;;18.55;2.80;;;7.30;99.90;;;;;;4879240;29;20037;-64
2024/02/19 05:38:20;;;;;;;13.57;2.65;;;7.20;99.90;;;;;;4883771;29;20120;-64
2024/02/19 05:40:46;;;;;;;16.52;3.22;;;7.30;99.90;;;;;;4887524;29;20025;-63
2024/02/19 05:43:11;;;;;;;14.23;2.25;;;7.30;99.90;;;;;;4884984;29;20025;-63
2024/02/19 05:45:37;;;;;;;17.95;3.38;;;7.40;99.90;;;;;;4870241;29;20121;-63
2024/02/19 05:48:03;;;;;;;16.17;2.95;;;7.30;99.90;;;;;;4886399;29;20115;-64
2024/02/19 05:50:30;;;;;;;8.98;2.47;;;7.30;99.90;;;;;;4871214;29;20036;-64
2024/02/19 05:52:56;;;;;;;17.48;4.50;;;7.30;99.90;;;;;;4881037;29;20041;-64
2024/02/19 05:55:22;;;;;;;16.77;3.63;;;7.30;99.90;;;;;;4891574;29;20596;-63
2024/02/19 05:57:48;;;;;;;21.65;4.63;;;7.40;99.90;;;;;;4889982;29;20104;-64
2024/02/19 06:00:14;;;;;;;16.13;4.55;;;7.40;99.90;;;;;;4886429;29;20024;-64
2024/02/19 06:02:43;;;;;;;21.73;4.47;;;7.40;99.90;;;;;;4882129;29;20460;-64
2024/02/19 06:05:11;;;;;;;15.02;3.95;;;7.40;99.90;;;;;;4869715;29;20036;-64
2024/02/19 06:07:38;;;;;;;20.98;4.40;;;7.50;99.90;;;;;;4886201;29;20053;-64
2024/02/19 06:10:04;;;;;;;20.65;5.13;;;7.40;99.90;;;;;;4884766;29;20203;-63
2024/02/19 06:12:30;;;;;;;23.88;5.15;;;7.50;99.90;;;;;;4892188;29;20012;-65
2024/02/19 06:14:56;;;;;;;25.65;5.55;;;7.50;99.90;;;;;;4885972;29;20032;-63
2024/02/19 06:17:21;;;;;;;23.52;5.70;;;7.40;99.90;;;;;;4892623;29;20037;-64
2024/02/19 06:19:47;;;;;;;12.07;3.38;;;7.50;99.90;;;;;;4892701;29;20077;-63
2024/02/19 06:22:14;;;;;;;26.73;5.40;;;7.50;99.90;;;;;;4888492;29;20033;-63
2024/02/19 06:24:40;;;;;;;23.67;5.63;;;7.40;99.90;;;;;;4889905;29;20073;-63
2024/02/19 06:27:06;;;;;;;24.25;6.28;;;7.50;99.90;;;;;;4891057;29;20079;-64
2024/02/19 06:29:36;;;;;;;19.67;5.57;;;7.50;99.90;;;;;;4892815;29;20056;-65
2024/02/19 06:32:01;;;;;;;23.77;5.70;;;7.50;99.90;;;;;;4890560;29;20037;-63
2024/02/19 06:34:27;;;;;;;18.60;4.50;;;7.50;99.90;;;;;;4893709;29;20049;-63
2024/02/19 06:36:53;;;;;;;15.88;4.85;;;7.50;99.90;;;;;;4890879;29;20112;-63
2024/02/19 06:39:20;;;;;;;24.25;5.88;;;7.50;99.90;;;;;;4886661;29;20037;-63
2024/02/19 06:41:46;;;;;;;17.42;5.32;;;7.50;99.90;;;;;;4886740;29;20040;-63
2024/02/19 06:44:11;;;;;;;19.70;5.45;;;7.50;99.90;;;;;;4885856;29;20060;-63
2024/02/19 06:46:37;;;;;;;19.52;5.03;;;7.50;99.90;;;;;;4887925;29;20060;-63
2024/02/19 06:49:04;;;;;;;25.55;6.35;;;7.50;99.90;;;;;;4875210;29;20040;-63
2024/02/19 06:51:29;;;;;;;26.58;5.88;;;7.50;99.90;;;;;;4876491;29;20108;-63
2024/02/19 06:53:55;;;;;;;21.20;4.40;;;7.50;99.90;;;;;;4884526;29;20127;-62
2024/02/19 06:56:20;;;;;;;27.70;8.05;;;7.60;99.90;;;;;;4888845;29;20049;-63
2024/02/19 06:58:46;;;;;;;31.00;9.13;;;7.50;99.90;;;;;;4890972;29;20475;-63
2024/02/19 07:01:15;;;;;;;29.40;7.32;;;7.50;99.90;;;;;;4885685;29;20104;-63
2024/02/19 07:03:42;;;;;;;31.10;8.60;;;7.50;99.90;;;;;;4868195;29;20025;-63
2024/02/19 07:06:07;;;;;;;25.80;7.00;;;7.50;99.90;;;;;;4888069;29;20056;-63
2024/02/19 07:08:33;;;;;;;26.33;7.18;;;7.50;99.90;;;;;;4884583;29;20055;-64
2024/02/19 07:10:59;;;;;;;29.63;8.38;;;7.50;99.90;;;;;;4883652;29;20096;-64
2024/02/19 07:13:24;;;;;;;24.15;7.97;;;7.50;99.90;;;;;;4869425;29;20034;-63
2024/02/19 07:15:50;;;;;;;25.92;8.02;;;7.50;99.90;;;;;;4896931;29;20028;-63
2024/02/19 07:18:15;;;;;;;33.40;7.72;;;7.50;99.90;;;;;;4879666;29;20499;-63
2024/02/19 07:20:41;;;;;;;30.05;8.40;;;7.60;99.90;;;;;;4885651;29;20045;-63
2024/02/19 07:23:07;;;;;;;26.70;6.10;;;7.50;99.90;;;;;;4885931;29;20033;-63
2024/02/19 07:25:32;;;;;;;26.52;7.40;;;7.60;99.90;;;;;;4883824;29;20057;-64
2024/02/19 07:27:58;;;;;;;32.35;8.30;;;7.60;99.90;;;;;;4884257;29;20037;-63
2024/02/19 07:30:23;;;;;;;23.90;7.65;;;7.60;99.90;;;;;;4888199;29;20029;-63
2024/02/19 07:32:49;;;;;;;25.50;8.50;;;7.60;99.90;;;;;;4887900;29;20064;-63
2024/02/19 07:35:15;;;;;;;35.80;8.77;;;7.80;99.90;;;;;;4870663;29;20036;-63
2024/02/19 07:37:41;;;;;;;24.33;7.57;;;7.70;99.90;;;;;;4885164;29;20033;-63
2024/02/19 07:40:07;;;;;;;31.88;8.80;;;7.70;99.90;;;;;;4888326;29;20044;-64
2024/02/19 07:42:33;;;;;;;27.92;7.50;;;7.70;99.90;;;;;;4885545;29;20084;-64
2024/02/19 07:44:58;;;;;;;36.97;9.93;;;7.70;99.90;;;;;;4886903;29;20029;-64
2024/02/19 07:47:24;;;;;;;32.42;10.27;;;7.70;99.90;;;;;;4888349;29;20029;-63
2024/02/19 07:49:49;;;;;;;29.10;8.88;;;7.70;99.90;;;;;;4888763;29;20036;-64
2024/02/19 07:52:15;;;;;;;25.92;7.65;;;7.80;99.90;;;;;;4887060;29;20127;-64
2024/02/19 07:54:40;;;;;;;31.02;9.70;;;7.80;99.90;;;;;;4885707;29;20030;-64
2024/02/19 07:57:07;;;;;;;33.13;9.27;;;7.80;99.90;;;;;;4876582;29;20481;-64
2024/02/19 07:59:32;;;;;;;29.08;10.68;;;7.80;99.90;;;;;;4875427;29;20040;-64
2024/02/19 08:01:59;;;;;;;35.38;10.57;;;7.80;99.90;;;;;;4888313;29;20047;-64
2024/02/19 08:04:27;;;;;;;29.73;9.75;;;7.90;99.90;;;;;;4866142;29;20029;-65
2024/02/19 08:06:53;;;;;;;33.72;11.15;;;7.90;99.90;;;;;;4873286;29;20064;-64
2024/02/19 08:09:19;;;;;;;32.85;10.23;;;7.80;99.90;;;;;;4886931;29;20112;-63
2024/02/19 08:11:44;;;;;;;29.73;11.30;;;7.90;99.90;;;;;;4893465;29;20038;-64
2024/02/19 08:14:10;;;;;;;36.83;11.25;;;7.90;99.90;;;;;;4886195;29;20031;-64
2024/02/19 08:16:36;;;;;;;29.65;11.27;;;7.80;99.90;;;;;;4888418;29;20032;-64
2024/02/19 08:19:01;;;;;;;33.45;11.23;;;7.90;99.90;;;;;;4888006;29;20387;-64
2024/02/19 08:21:28;;;;;;;31.67;11.65;;;7.80;99.90;;;;;;4886905;29;20029;-65
2024/02/19 08:23:53;;;;;;;30.33;11.73;;;7.90;99.90;;;;;;4881134;29;20040;-64
2024/02/19 08:26:19;;;;;;;39.97;11.23;;;8.00;99.90;;;;;;4884516;29;20392;-64
2024/02/19 08:28:46;;;;;;;28.33;9.73;;;8.00;99.90;;;;;;4887607;29;20041;-64
2024/02/19 08:31:12;;;;;;;30.27;11.60;;;8.10;99.90;;;;;;4887652;29;20029;-64
2024/02/19 08:33:38;;;;;;;33.63;10.02;;;8.10;99.90;;;;;;4887126;29;20039;-63
2024/02/19 08:36:04;;;;;;;32.20;11.40;;;8.10;99.90;;;;;;4884712;29;20037;-64
2024/02/19 08:38:30;;;;;;;30.67;9.02;;;8.10;99.90;;;;;;4888593;29;20032;-63
2024/02/19 08:40:56;;;;;;;25.48;10.02;;;8.10;99.90;;;;;;4891827;29;20064;-64
2024/02/19 08:43:22;;;;;;;31.73;11.98;;;8.00;99.90;;;;;;4885012;29;20468;-63
2024/02/19 08:45:47;;;;;;;29.35;9.55;;;8.10;99.90;;;;;;4890323;29;20465;-63
2024/02/19 08:48:13;;;;;;;27.00;6.82;;;8.10;99.90;;;;;;4866796;29;20040;-63
2024/02/19 08:50:39;;;;;;;24.48;8.57;;;8.20;99.90;;;;;;4868937;29;20032;-64
2024/02/19 08:53:05;;;;;;;25.25;9.10;;;8.20;99.90;;;;;;4885364;29;20041;-64
2024/02/19 08:55:31;;;;;;;28.60;7.68;;;8.30;99.90;;;;;;4886913;29;20100;-64
2024/02/19 08:57:57;;;;;;;19.95;7.32;;;8.40;99.90;;;;;;4890837;29;20060;-65
2024/02/19 09:00:23;;;;;;;24.55;7.15;;;8.50;99.90;;;;;;4869806;29;20591;-64
2024/02/19 09:02:49;;;;;;;19.83;6.40;;;8.60;99.90;;;;;;4886398;29;20044;-64
2024/02/19 09:05:17;;;;;;;20.92;6.80;;;8.60;99.90;;;;;;4868221;29;20028;-64
2024/02/19 09:07:43;;;;;;;24.88;6.90;;;8.70;99.90;;;;;;4885618;29;20025;-64
2024/02/19 09:10:08;;;;;;;17.20;5.10;;;8.90;99.90;;;;;;4887961;29;20028;-64
2024/02/19 09:12:34;;;;;;;24.42;7.30;;;9.00;99.90;;;;;;4884746;29;20395;-64
2024/02/19 09:15:00;;;;;;;24.77;6.88;;;9.00;99.90;;;;;;4886242;29;20088;-64
2024/02/19 09:17:26;;;;;;;14.90;3.92;;;9.10;99.90;;;;;;4880781;29;20063;-64
2024/02/19 09:19:51;;;;;;;26.77;6.88;;;9.10;99.90;;;;;;4887077;29;20081;-64
2024/02/19 09:22:17;;;;;;;20.23;5.95;;;9.10;99.90;;;;;;4885099;29;20548;-64
2024/02/19 09:24:46;;;;;;;21.30;6.18;;;9.10;99.90;;;;;;4889242;29;20075;-64
2024/02/19 09:27:12;;;;;;;21.92;4.55;;;9.10;99.90;;;;;;4885014;29;20025;-65
2024/02/19 09:29:37;;;;;;;17.65;6.13;;;9.20;99.90;;;;;;4886520;29;20029;-64
2024/02/19 09:32:03;;;;;;;18.58;5.13;;;9.20;99.90;;;;;;4868691;29;20040;-64
2024/02/19 09:34:29;;;;;;;19.13;5.28;;;9.20;99.90;;;;;;4888239;29;20476;-64
2024/02/19 09:36:54;;;;;;;21.58;6.00;;;9.30;99.90;;;;;;4887104;29;20064;-64
2024/02/19 09:39:20;;;;;;;20.90;5.53;;;9.50;99.90;;;;;;4887208;29;20086;-64
2024/02/19 09:41:47;;;;;;;22.73;5.25;;;9.50;99.90;;;;;;4890753;29;20104;-64
2024/02/19 09:44:13;;;;;;;22.10;5.43;;;9.60;99.90;;;;;;4887096;29;20025;-64
2024/02/19 09:46:40;;;;;;;17.17;5.00;;;9.60;99.90;;;;;;4878571;29;20032;-64
2024/02/19 09:49:10;;;;;;;17.90;5.88;;;9.60;99.90;;;;;;4889058;29;20040;-64
2024/02/19 09:51:39;;;;;;;25.88;7.78;;;9.60;99.90;;;;;;4887497;29;20127;-65
2024/02/19 09:54:05;;;;;;;20.45;6.30;;;9.60;99.90;;;;;;4887166;29;20097;-65
2024/02/19 09:56:34;;;;;;;18.63;7.05;;;9.70;99.90;;;;;;4889554;29;20565;-64
2024/02/19 09:58:59;;;;;;;29.90;7.82;;;9.80;99.90;;;;;;4886998;29;20040;-64
2024/02/19 10:01:25;;;;;;;16.45;4.90;;;9.80;99.90;;;;;;4875009;29;20025;-65
2024/02/19 10:03:51;;;;;;;19.30;7.10;;;9.80;99.90;;;;;;4889779;29;20070;-65
2024/02/19 10:06:17;;;;;;;15.40;5.45;;;9.90;99.90;;;;;;4876453;29;20032;-65
2024/02/19 10:08:44;;;;;;;19.65;6.80;;;9.90;99.90;;;;;;4888882;29;20036;-65
2024/02/19 10:11:11;;;;;;;21.25;7.13;;;10.00;99.90;;;;;;4888854;29;20029;-65
2024/02/19 10:13:42;;;;;;;21.88;7.30;;;10.00;99.90;;;;;;4888574;29;20033;-65
2024/02/19 10:16:11;;;;;;;17.77;6.25;;;10.10;99.90;;;;;;4886572;29;20108;-65
2024/02/19 10:18:37;;;;;;;20.27;6.95;;;10.10;99.90;;;;;;4893168;29;20349;-66
2024/02/19 10:21:04;;;;;;;22.13;6.70;;;10.10;99.90;;;;;;4886694;29;20089;-65
2024/02/19 10:23:30;;;;;;;21.55;7.25;;;10.10;99.90;;;;;;4885741;29;20064;-65
2024/02/19 10:25:55;;;;;;;22.63;7.07;;;10.20;99.90;;;;;;4886254;29;20116;-66
2024/02/19 10:28:22;;;;;;;22.63;6.80;;;10.30;99.90;;;;;;4886034;29;20161;-65
2024/02/19 10:30:48;;;;;;;17.75;4.85;;;10.40;99.90;;;;;;4893196;29;20048;-65
2024/02/19 10:33:14;;;;;;;10.35;4.55;;;10.40;99.90;;;;;;4872592;29;20040;-64
2024/02/19 10:35:40;;;;;;;20.63;6.05;;;10.40;99.90;;;;;;4886142;29;20043;-65
2024/02/19 10:38:07;;;;;;;14.00;4.90;;;10.40;99.90;;;;;;4888487;29;20044;-65
2024/02/19 10:40:33;;;;;;;24.08;7.07;;;10.40;99.90;;;;;;4889421;29;20024;-65
2024/02/19 10:43:00;;;;;;;18.45;6.88;;;10.50;99.90;;;;;;4887672;29;20111;-64
2024/02/19 10:45:26;;;;;;;18.02;5.70;;;10.70;99.90;;;;;;4886197;29;20116;-64
2024/02/19 10:47:56;;;;;;;19.25;6.18;;;10.80;99.90;;;;;;4888959;29;20419;-64
2024/02/19 10:50:22;;;;;;;21.90;7.30;;;10.70;99.90;;;;;;4885677;29;20060;-64
2024/02/19 10:52:48;;;;;;;22.58;7.80;;;10.70;99.90;;;;;;4887005;29;20585;-64
2024/02/19 10:55:17;;;;;;;18.45;7.13;;;10.90;99.90;;;;;;4885745;29;20061;-64
2024/02/19 10:57:51;;;;;;;24.95;7.65;;;11.00;99.90;;;;;;4885303;29;20057;-64
2024/02/19 11:00:18;;;;;;;22.42;8.20;;;10.90;99.90;;;;;;4872675;29;20054;-64
2024/02/19 11:02:47;;;;;;;20.70;7.07;;;10.70;99.90;;;;;;4885230;29;20458;-65
2024/02/19 11:05:13;;;;;;;22.92;6.78;;;10.70;99.90;;;;;;4885774;29;20060;-64
2024/02/19 11:07:40;;;;;;;20.15;6.25;;;10.80;99.90;;;;;;4888663;29;20529;-64
2024/02/19 11:10:06;;;;;;;20.77;6.93;;;11.00;99.90;;;;;;4886685;29;20549;-64
2024/02/19 11:12:33;;;;;;;18.55;6.53;;;10.90;99.90;;;;;;4887439;29;20109;-63
2024/02/19 11:14:59;;;;;;;18.38;5.43;;;10.90;99.90;;;;;;4885768;29;20096;-63
2024/02/19 11:17:25;;;;;;;21.42;6.10;;;10.90;99.90;;;;;;4888004;29;20025;-64
2024/02/19 11:19:54;;;;;;;16.67;5.97;;;11.00;99.90;;;;;;4876814;29;20453;-63
2024/02/19 11:22:30;;;;;;;15.80;5.37;;;11.00;99.90;;;;;;4888147;29;20480;-64
2024/02/19 11:24:57;;;;;;;19.67;6.18;;;11.00;99.90;;;;;;4886052;29;20470;-63
2024/02/19 11:27:23;;;;;;;19.17;6.22;;;10.80;99.90;;;;;;4887881;29;20087;-63
2024/02/19 11:29:59;;;;;;;21.30;6.57;;;10.70;99.90;;;;;;4888314;29;20461;-64
2024/02/19 11:32:25;;;;;;;21.05;7.68;;;10.90;99.90;;;;;;4887223;29;20028;-63
2024/02/19 11:34:51;;;;;;;19.02;6.57;;;10.90;99.90;;;;;;4885404;29;20033;-63
2024/02/19 11:37:16;;;;;;;20.83;7.15;;;11.10;99.90;;;;;;4884863;29;20029;-63
2024/02/19 11:39:44;;;;;;;25.33;8.32;;;11.00;99.90;;;;;;4887761;29;20035;-63
2024/02/19 11:42:14;;;;;;;23.17;7.85;;;10.90;99.90;;;;;;4888010;29;20359;-64
2024/02/19 11:44:41;;;;;;;24.23;8.15;;;10.80;99.90;;;;;;4884326;29;20114;-63
2024/02/19 11:47:09;;;;;;;23.85;8.68;;;10.70;99.90;;;;;;4885172;29;20516;-63
2024/02/19 11:49:36;;;;;;;21.80;8.52;;;10.80;99.90;;;;;;4892230;29;20125;-63
2024/02/19 11:52:03;;;;;;;21.30;9.30;;;10.90;99.90;;;;;;4885505;29;20033;-63
2024/02/19 11:54:29;;;;;;;22.38;8.70;;;10.90;99.90;;;;;;4885672;29;20571;-64
2024/02/19 11:56:57;;;;;;;22.88;8.80;;;11.00;99.90;;;;;;4883610;29;20032;-63
2024/02/19 11:59:24;;;;;;;23.80;9.15;;;11.10;99.90;;;;;;4889312;29;20024;-64
2024/02/19 12:01:57;;;;;;;19.25;9.70;;;11.20;99.90;;;;;;4884927;29;20520;-64
2024/02/19 12:04:26;;;;;;;20.15;7.00;;;11.20;99.90;;;;;;4886802;29;20028;-64
2024/02/19 12:06:51;;;;;;;23.30;8.60;;;11.10;99.90;;;;;;4885271;29;20025;-63
2024/02/19 12:09:17;;;;;;;22.10;8.07;;;11.10;99.90;;;;;;4887161;29;20365;-63
2024/02/19 12:11:45;;;;;;;22.83;7.35;;;11.00;99.90;;;;;;4867199;29;20162;-63
2024/02/19 12:14:13;;;;;;;21.52;8.70;;;11.00;99.90;;;;;;4890611;29;20373;-64
2024/02/19 12:16:39;;;;;;;20.15;8.30;;;10.90;99.90;;;;;;4890129;29;20061;-63
2024/02/19 12:19:05;;;;;;;21.52;8.45;;;11.00;99.90;;;;;;4889146;29;20044;-63
2024/02/19 12:21:32;;;;;;;14.07;6.53;;;11.00;99.90;;;;;;4884869;29;20393;-64
2024/02/19 12:24:00;;;;;;;21.08;7.93;;;11.00;99.90;;;;;;4884119;29;20351;-64
2024/02/19 12:26:26;;;;;;;18.58;6.45;;;11.10;99.90;;;;;;4886017;29;20036;-64
2024/02/19 12:28:51;;;;;;;18.88;7.75;;;11.30;99.90;;;;;;4885375;29;20496;-64
2024/02/19 12:31:18;;;;;;;14.45;5.68;;;11.30;99.90;;;;;;4889191;29;20077;-64
2024/02/19 12:33:44;;;;;;;22.70;8.13;;;11.30;99.90;;;;;;4883488;29;20060;-64
2024/02/19 12:36:12;;;;;;;16.73;6.53;;;11.30;99.90;;;;;;4884181;29;20468;-63
2024/02/19 12:38:41;;;;;;;21.70;6.40;;;11.30;99.90;;;;;;4887206;29;20036;-64
2024/02/19 12:41:17;;;;;;;23.70;7.57;;;11.20;99.90;;;;;;4886561;29;20025;-64